地図

経路データ

SID SEASON NUMBER BASIN SUBBASIN NAME ISO_TIME NATURE LAT LON WMO_WIND WMO_PRES WMO_AGENCY TRACK_TYPE DIST2LAND LANDFALL IFLAG USA_AGENCY USA_ATCF_ID USA_LAT USA_LON USA_RECORD USA_STATUS USA_WIND USA_PRES USA_SSHS USA_R34_NE USA_R34_SE USA_R34_SW USA_R34_NW USA_R50_NE USA_R50_SE USA_R50_SW USA_R50_NW USA_R64_NE USA_R64_SE USA_R64_SW USA_R64_NW USA_POCI USA_ROCI USA_RMW USA_EYE TOKYO_LAT TOKYO_LON TOKYO_GRADE TOKYO_WIND TOKYO_PRES TOKYO_R50_DIR TOKYO_R50_LONG TOKYO_R50_SHORT TOKYO_R30_DIR TOKYO_R30_LONG TOKYO_R30_SHORT TOKYO_LAND CMA_LAT CMA_LON CMA_CAT CMA_WIND CMA_PRES HKO_LAT HKO_LON HKO_CAT HKO_WIND HKO_PRES NEWDELHI_LAT NEWDELHI_LON NEWDELHI_GRADE NEWDELHI_WIND NEWDELHI_PRES NEWDELHI_CI NEWDELHI_DP NEWDELHI_POCI REUNION_LAT REUNION_LON REUNION_TYPE REUNION_WIND REUNION_PRES REUNION_TNUM REUNION_CI REUNION_RMW REUNION_R34_NE REUNION_R34_SE REUNION_R34_SW REUNION_R34_NW REUNION_R50_NE REUNION_R50_SE REUNION_R50_SW REUNION_R50_NW REUNION_R64_NE REUNION_R64_SE REUNION_R64_SW REUNION_R64_NW BOM_LAT BOM_LON BOM_TYPE BOM_WIND BOM_PRES BOM_TNUM BOM_CI BOM_RMW BOM_R34_NE BOM_R34_SE BOM_R34_SW BOM_R34_NW BOM_R50_NE BOM_R50_SE BOM_R50_SW BOM_R50_NW BOM_R64_NE BOM_R64_SE BOM_R64_SW BOM_R64_NW BOM_ROCI BOM_POCI BOM_EYE BOM_POS_METHOD BOM_PRES_METHOD NADI_LAT NADI_LON NADI_CAT NADI_WIND NADI_PRES WELLINGTON_LAT WELLINGTON_LON WELLINGTON_WIND WELLINGTON_PRES DS824_LAT DS824_LON DS824_STAGE DS824_WIND DS824_PRES TD9636_LAT TD9636_LON TD9636_STAGE TD9636_WIND TD9636_PRES TD9635_LAT TD9635_LON TD9635_WIND TD9635_PRES TD9635_ROCI NEUMANN_LAT NEUMANN_LON NEUMANN_CLASS NEUMANN_WIND NEUMANN_PRES MLC_LAT MLC_LON MLC_CLASS MLC_WIND MLC_PRES USA_GUST BOM_GUST BOM_GUST_PER REUNION_GUST REUNION_GUST_PER USA_SEAHGT USA_SEARAD_NE USA_SEARAD_SE USA_SEARAD_SW USA_SEARAD_NW STORM_SPEED STORM_DIR
1920314N10127 1920 51 WP MM NOT_NAMED 1920-11-09 09:00:00 NR 10.3000 127.100 main 150 79 __________O___ -1 10.3000 127.100 7 54 338
1920314N10127 1920 51 WP MM NOT_NAMED 1920-11-09 12:00:00 NR 12.7640 126.076 main 93 93 __________P___ -1 12.7640 126.076 7 52 338
1920314N10127 1920 51 WP MM NOT_NAMED 1920-11-09 15:00:00 NR 15.0753 125.120 main 150 150 __________P___ -1 15.0753 125.120 7 47 339
1920314N10127 1920 51 WP MM NOT_NAMED 1920-11-09 18:00:00 NR 17.0719 124.328 main 191 158 __________P___ -1 17.0719 124.328 7 38 340
1920314N10127 1920 51 WP MM NOT_NAMED 1920-11-09 21:00:00 NR 18.6000 123.800 main 159 154 __________O___ -1 18.6000 123.800 4 26 345
1920314N10127 1920 51 WP MM NOT_NAMED 1920-11-10 00:00:00 NR 19.5691 123.606 main 191 191 __________P___ -1 19.5691 123.606 4 15 356
1920314N10127 1920 51 WP MM NOT_NAMED 1920-11-10 03:00:00 NR 20.1161 123.687 main 240 240 __________P___ -1 20.1161 123.687 4 9 21
1920314N10127 1920 51 WP MM NOT_NAMED 1920-11-10 06:00:00 NR 20.4304 123.951 main 286 286 __________P___ -1 20.4304 123.951 4 8 45
1920314N10127 1920 51 WP MM NOT_NAMED 1920-11-10 09:00:00 NR 20.7000 124.300 main 331 331 __________O___ -1 20.7000 124.300 4 9 34
1920314N10127 1920 51 WP MM NOT_NAMED 1920-11-10 12:00:00 NR 21.1688 124.488 main 380 374 __________P___ -1 21.1688 124.488 4 10 24
1920314N10127 1920 51 WP MM NOT_NAMED 1920-11-10 15:00:00 NR 21.6367 124.752 main 387 378 __________P___ -1 21.6367 124.752 4 11 32
1920314N10127 1920 51 WP MM NOT_NAMED 1920-11-10 18:00:00 NR 22.1364 125.140 main 395 395 __________P___ -1 22.1364 125.140 4 14 40
1920314N10127 1920 51 WP MM NOT_NAMED 1920-11-10 21:00:00 NR 22.7000 125.700 main 436 436 __________O___ -1 22.7000 125.700 4 18 44
1920314N10127 1920 51 WP MM NOT_NAMED 1920-11-11 00:00:00 NR 23.3944 126.476 main 483 483 __________P___ -1 23.3944 126.476 4 22 48
1920314N10127 1920 51 WP MM NOT_NAMED 1920-11-11 03:00:00 NR 24.1446 127.428 main 554 554 __________P___ -1 24.1446 127.428 4 24 51
1920314N10127 1920 51 WP MM NOT_NAMED 1920-11-11 06:00:00 NR 24.8970 128.492 main 654 614 __________P___ -1 24.8970 128.492 4 25 54
1920314N10127 1920 51 WP MM NOT_NAMED 1920-11-11 09:00:00 NR 25.6000 129.600 main 612 558 __________O___ -1 25.6000 129.600 4 21 58
1920314N10127 1920 51 WP MM NOT_NAMED 1920-11-11 12:00:00 NR 26.0007 130.416 main 558 515 __________P___ -1 26.0007 130.416 4 17 63
1920314N10127 1920 51 WP MM NOT_NAMED 1920-11-11 15:00:00 NR 26.3774 131.287 main 516 483 __________P___ -1 26.3774 131.287 4 20 63
1920314N10127 1920 51 WP MM NOT_NAMED 1920-11-11 18:00:00 NR 26.8915 132.386 main 486 474 __________P___ -1 26.8915 132.386 4 27 60
1920314N10127 1920 51 WP MM NOT_NAMED 1920-11-11 21:00:00 NR 27.7000 133.900 main 478 473 __________O___ -1 27.7000 133.900 4 40 59
1920314N10127 1920 51 WP MM NOT_NAMED 1920-11-12 00:00:00 NR 28.9676 136.281 main 493 437 __________P___ -1 28.9676 136.281 4 54 59
1920314N10127 1920 51 WP MM NOT_NAMED 1920-11-12 03:00:00 NR 30.4926 139.128 main 448 368 __________P___ -1 30.4926 139.128 4 59 58
1920314N10127 1920 51 WP MM NOT_NAMED 1920-11-12 06:00:00 NR 32.1387 142.119 main 372 370 __________P___ -1 32.1387 142.119 4 59 56
1920314N10127 1920 51 WP MM NOT_NAMED 1920-11-12 09:00:00 NR 33.8000 144.900 main 421 421 __________O___ -1 33.8000 144.900 4 53 52
1920314N10127 1920 51 WP MM NOT_NAMED 1920-11-12 12:00:00 NR 35.4219 147.185 main 569 569 __________P___ -1 35.4219 147.185 4 47 46
1920314N10127 1920 51 WP MM NOT_NAMED 1920-11-12 15:00:00 NR 37.0211 149.040 main 661 661 __________P___ -1 37.0211 149.040 4 42 41
1920314N10127 1920 51 WP MM NOT_NAMED 1920-11-12 18:00:00 NR 38.6137 150.623 main 666 634 __________P___ -1 38.6137 150.623 4 40 37
1920314N10127 1920 51 WP MM NOT_NAMED 1920-11-12 21:00:00 NR 40.2000 152.100 main 627 __________O___ -1 40.2000 152.100 4 39 35

デジタル台風データ・検索

IBTrACS Databaseについて

本データベースは、米国NOAAが公開する1842年以降の世界の熱帯低気圧のベストトラックデータアーカイブInternational Best Track Archive for Climate Stewardship (IBTrACS)を、ウェブで閲覧しやすい形式に変換したものです。

最終更新日:2021-10-19